createdAt,value
2023-04-03T00:01:20.010Z,70.19
2023-04-03T00:03:48.036Z,70.07
2023-04-03T00:06:16.413Z,69.96
2023-04-03T00:08:44.495Z,69.60
2023-04-03T00:11:12.514Z,69.57
2023-04-03T00:13:41.259Z,69.53
2023-04-03T00:16:12.413Z,69.09
2023-04-03T00:18:42.020Z,69.11
2023-04-03T00:21:12.175Z,69.67
2023-04-03T00:23:40.328Z,69.77
2023-04-03T00:26:08.620Z,68.65
2023-04-03T00:28:36.535Z,69.34
2023-04-03T00:31:04.652Z,68.56
2023-04-03T00:33:33.946Z,67.97
2023-04-03T00:36:01.877Z,68.97
2023-04-03T00:38:29.802Z,68.71
2023-04-03T00:40:57.709Z,69.29
2023-04-03T00:43:29.416Z,69.26
2023-04-03T00:45:59.819Z,68.94
2023-04-03T00:48:32.898Z,69.77
2023-04-03T00:51:04.631Z,68.96
2023-04-03T00:53:37.665Z,69.76
2023-04-03T00:56:11.193Z,69.85
2023-04-03T00:58:46.148Z,70.34
2023-04-03T01:01:20.654Z,70.52
2023-04-03T01:03:48.553Z,69.75
2023-04-03T01:06:22.706Z,70.16
2023-04-03T01:08:52.500Z,69.84
2023-04-03T01:11:21.642Z,69.06
2023-04-03T01:13:50.169Z,68.71
2023-04-03T01:16:18.242Z,69.03
2023-04-03T01:18:47.721Z,68.66
2023-04-03T01:21:58.567Z,68.55
2023-04-03T01:24:39.958Z,67.95
2023-04-03T01:27:11.510Z,67.60
2023-04-03T01:29:40.401Z,67.62
2023-04-03T01:32:09.783Z,67.88
2023-04-03T01:34:37.727Z,66.78
2023-04-03T01:37:05.697Z,67.78
2023-04-03T01:39:33.625Z,67.86
2023-04-03T01:42:01.642Z,68.29
2023-04-03T01:44:29.559Z,68.33
2023-04-03T01:46:57.421Z,68.76
2023-04-03T01:49:26.757Z,66.97
2023-04-03T01:51:54.625Z,67.56
2023-04-03T01:54:23.643Z,66.21
2023-04-03T01:56:51.513Z,67.19
2023-04-03T01:59:20.213Z,67.00
2023-04-03T02:01:48.065Z,67.06
2023-04-03T02:04:16.057Z,67.45
2023-04-03T02:06:45.302Z,68.67
2023-04-03T02:09:13.186Z,66.28
2023-04-03T02:11:41.269Z,66.69
2023-04-03T02:14:09.256Z,66.89
2023-04-03T02:16:37.178Z,67.46
2023-04-03T02:19:05.037Z,66.56
2023-04-03T02:21:32.958Z,67.39
2023-04-03T02:24:02.123Z,66.54
2023-04-03T02:26:29.981Z,67.02
2023-04-03T02:28:57.867Z,67.02
2023-04-03T02:31:25.719Z,67.47
2023-04-03T02:33:53.599Z,66.97
2023-04-03T02:36:21.850Z,66.54
2023-04-03T02:38:50.353Z,66.92
2023-04-03T02:41:19.564Z,66.75
2023-04-03T02:43:47.362Z,67.06
2023-04-03T02:46:16.168Z,66.76
2023-04-03T02:48:44.048Z,67.16
2023-04-03T02:51:11.930Z,67.04
2023-04-03T02:53:39.793Z,68.27
2023-04-03T02:56:07.775Z,66.52
2023-04-03T02:58:37.062Z,67.20
2023-04-03T03:01:05.447Z,67.48
2023-04-03T03:03:33.300Z,68.23
2023-04-03T03:06:05.602Z,68.41
2023-04-03T03:08:33.827Z,67.73
2023-04-03T03:11:02.115Z,67.76
2023-04-03T03:13:30.002Z,68.27
2023-04-03T03:15:59.929Z,67.61
2023-04-03T03:18:27.945Z,68.55
2023-04-03T03:20:56.672Z,68.27
2023-04-03T03:23:27.053Z,68.88
2023-04-03T03:25:57.788Z,68.89
2023-04-03T03:28:26.281Z,68.70
2023-04-03T03:30:54.130Z,68.99
2023-04-03T03:33:23.409Z,69.05
2023-04-03T03:35:52.105Z,69.11
2023-04-03T03:38:20.228Z,69.36
2023-04-03T03:40:49.570Z,69.48
2023-04-03T03:43:17.747Z,68.80
2023-04-03T03:45:46.549Z,69.34
2023-04-03T03:48:14.407Z,69.95
2023-04-03T03:50:43.637Z,69.73
2023-04-03T03:53:11.616Z,70.27
2023-04-03T03:55:39.935Z,70.13
2023-04-03T03:58:07.847Z,70.32
2023-04-03T04:00:35.768Z,68.87
2023-04-03T04:03:03.720Z,69.34
2023-04-03T04:05:31.749Z,70.12
2023-04-03T04:08:01.012Z,69.93
2023-04-03T04:10:28.958Z,70.40
2023-04-03T04:12:58.525Z,70.05
2023-04-03T04:15:26.887Z,70.16
2023-04-03T04:17:55.078Z,69.81
2023-04-03T04:20:23.269Z,69.77
2023-04-03T04:22:51.173Z,70.48
2023-04-03T04:25:20.531Z,70.33
2023-04-03T04:27:48.421Z,70.00
2023-04-03T04:30:16.507Z,70.19
2023-04-03T04:32:44.442Z,70.44
2023-04-03T04:35:14.032Z,70.21
2023-04-03T04:37:43.226Z,70.27
2023-04-03T04:40:11.764Z,70.96
2023-04-03T04:42:41.148Z,70.44
2023-04-03T04:45:09.530Z,70.68
2023-04-03T04:47:37.460Z,70.16
2023-04-03T04:50:06.510Z,69.98
2023-04-03T04:52:34.530Z,70.40
2023-04-03T04:55:02.420Z,70.34
2023-04-03T04:57:30.322Z,70.49
2023-04-03T04:59:59.576Z,70.67
2023-04-03T05:02:27.536Z,70.98
2023-04-03T05:04:55.449Z,71.03
2023-04-03T05:07:23.439Z,70.85
2023-04-03T05:09:53.770Z,71.12
2023-04-03T05:12:21.674Z,71.03
2023-04-03T05:14:49.656Z,71.23
2023-04-03T05:17:18.912Z,70.56
2023-04-03T05:19:46.758Z,71.29
2023-04-03T05:22:14.632Z,71.60
2023-04-03T05:24:42.483Z,71.05
2023-04-03T05:27:10.421Z,70.94
2023-04-03T05:29:38.242Z,71.04
2023-04-03T05:32:06.410Z,71.59
2023-04-03T05:34:35.610Z,72.04
2023-04-03T05:37:05.387Z,71.81
2023-04-03T05:39:33.878Z,70.60
2023-04-03T05:42:01.905Z,71.05
2023-04-03T05:44:29.735Z,72.27
2023-04-03T05:46:57.558Z,71.51
2023-04-03T05:49:25.437Z,71.22
2023-04-03T05:51:54.735Z,71.63
2023-04-03T05:54:25.800Z,71.90
2023-04-03T05:56:54.601Z,70.56
2023-04-03T05:59:23.303Z,70.80
2023-04-03T06:01:51.165Z,71.01
2023-04-03T06:04:20.241Z,71.44
2023-04-03T06:06:52.386Z,71.26
2023-04-03T06:09:23.624Z,71.80
2023-04-03T06:11:51.476Z,71.33
2023-04-03T06:14:19.653Z,71.43
2023-04-03T06:16:47.631Z,70.74
2023-04-03T06:19:15.549Z,70.89
2023-04-03T06:21:43.479Z,71.46
2023-04-03T06:24:14.541Z,72.18
2023-04-03T06:26:44.099Z,71.83
2023-04-03T06:29:12.151Z,71.76
2023-04-03T06:31:40.707Z,72.15
2023-04-03T06:34:09.814Z,72.06
2023-04-03T06:36:37.848Z,72.34
2023-04-03T06:39:05.758Z,71.18
2023-04-03T06:41:34.827Z,70.21
2023-04-03T06:44:05.378Z,70.33
2023-04-03T06:46:33.372Z,71.71
2023-04-03T06:49:01.261Z,71.75
2023-04-03T06:51:31.278Z,71.17
2023-04-03T06:54:03.360Z,71.77
2023-04-03T06:56:31.654Z,71.22
2023-04-03T06:58:59.674Z,73.11
2023-04-03T07:01:32.672Z,72.16
2023-04-03T07:04:01.230Z,71.54
2023-04-03T07:06:29.255Z,71.08
2023-04-03T07:08:57.747Z,72.12
2023-04-03T07:11:25.862Z,71.29
2023-04-03T07:13:54.561Z,70.87
2023-04-03T07:16:22.617Z,71.29
2023-04-03T07:18:52.093Z,71.28
2023-04-03T07:21:20.000Z,71.46
2023-04-03T07:26:21.800Z,70.80
2023-04-03T07:28:50.863Z,71.42
2023-04-03T07:31:19.812Z,71.41
2023-04-03T07:33:48.154Z,71.02
2023-04-03T07:36:20.863Z,70.14
2023-04-03T07:38:48.998Z,69.98
2023-04-03T07:41:21.011Z,70.33
2023-04-03T07:43:50.690Z,69.85
2023-04-03T07:46:19.737Z,69.85
2023-04-03T07:48:47.751Z,69.14
2023-04-03T07:51:17.243Z,68.52
2023-04-03T07:53:45.153Z,70.38
2023-04-03T07:56:12.988Z,72.04
2023-04-03T07:58:40.928Z,71.19
2023-04-03T08:01:09.129Z,71.04
2023-04-03T08:03:38.401Z,69.93
2023-04-03T08:06:11.954Z,70.87
2023-04-03T08:08:45.155Z,71.37
2023-04-03T08:11:14.054Z,71.64
2023-04-03T08:13:43.011Z,70.73
2023-04-03T08:16:13.354Z,70.26
2023-04-03T08:18:41.508Z,69.51
2023-04-03T08:21:09.887Z,69.74
2023-04-03T08:23:37.937Z,69.16
2023-04-03T08:26:12.078Z,69.00
2023-04-03T08:28:40.645Z,68.32
2023-04-03T08:31:12.073Z,67.77
2023-04-03T08:33:41.396Z,67.81
2023-04-03T08:36:19.772Z,68.43
2023-04-03T08:38:47.792Z,66.92
2023-04-03T08:41:31.476Z,67.66
2023-04-03T08:44:14.933Z,66.27
2023-04-03T08:46:57.887Z,66.32
2023-04-03T08:49:33.511Z,65.87
2023-04-03T08:52:06.645Z,65.80
2023-04-03T08:54:39.454Z,65.51
2023-04-03T08:57:08.804Z,63.76
2023-04-03T08:59:40.610Z,64.87
2023-04-03T09:02:27.398Z,64.31
2023-04-03T09:04:56.179Z,63.95
2023-04-03T09:07:35.589Z,64.12
2023-04-03T09:10:04.281Z,64.13
2023-04-03T09:12:40.605Z,64.14
2023-04-03T09:15:27.815Z,63.87
2023-04-03T09:18:07.451Z,62.44
2023-04-03T09:20:47.023Z,61.47
2023-04-03T09:23:27.352Z,61.06
2023-04-03T09:26:04.757Z,60.44
2023-04-03T09:28:49.269Z,62.43
2023-04-03T09:31:25.392Z,61.08
2023-04-03T09:33:58.779Z,59.55
2023-04-03T09:36:44.206Z,58.61
2023-04-03T09:39:15.818Z,58.38
2023-04-03T09:41:56.731Z,59.19
2023-04-03T09:44:27.748Z,57.97
2023-04-03T09:46:55.835Z,57.23
2023-04-03T09:49:24.390Z,57.88
2023-04-03T09:51:52.701Z,58.05
2023-04-03T09:54:38.220Z,55.02
2023-04-03T09:57:13.115Z,55.86
2023-04-03T09:59:48.302Z,53.32
2023-04-03T10:02:38.932Z,52.06
2023-04-03T10:05:32.672Z,54.28
2023-04-03T10:08:12.306Z,53.76
2023-04-03T10:10:41.322Z,55.21
2023-04-03T10:13:20.636Z,52.82
2023-04-03T10:15:55.955Z,51.27
2023-04-03T10:18:38.526Z,50.19
2023-04-03T10:21:26.623Z,47.80
2023-04-03T10:24:05.455Z,47.36
2023-04-03T10:26:43.226Z,49.30
2023-04-03T10:29:29.157Z,49.72
2023-04-03T10:32:13.856Z,51.41
2023-04-03T10:34:54.707Z,52.72
2023-04-03T10:37:37.525Z,53.40
2023-04-03T10:40:21.331Z,54.09
2023-04-03T10:43:00.169Z,54.57
2023-04-03T10:45:34.016Z,52.84
2023-04-03T10:48:11.551Z,52.00
2023-04-03T10:50:48.607Z,52.59
2023-04-03T10:53:33.636Z,52.50
2023-04-03T10:56:12.782Z,50.44
2023-04-03T10:58:46.280Z,52.95
2023-04-03T11:01:21.230Z,51.29
2023-04-03T11:03:55.394Z,51.42
2023-04-03T11:06:28.737Z,54.89
2023-04-03T11:09:04.614Z,52.50
2023-04-03T11:11:36.344Z,53.13
2023-04-03T11:14:12.691Z,49.32
2023-04-03T11:16:53.996Z,49.65
2023-04-03T11:19:36.323Z,45.99
2023-04-03T11:22:11.874Z,46.24
2023-04-03T11:24:57.596Z,46.19
2023-04-03T11:27:28.148Z,44.70
2023-04-03T11:29:57.756Z,45.48
2023-04-03T11:33:00.583Z,45.63
2023-04-03T11:35:31.344Z,48.19
2023-04-03T11:38:03.582Z,50.64
2023-04-03T11:40:35.158Z,47.80
2023-04-03T11:43:09.685Z,47.81
2023-04-03T11:45:40.551Z,48.16
2023-04-03T11:48:46.501Z,44.12
2023-04-03T11:51:47.275Z,43.95
2023-04-03T11:54:45.636Z,47.36
2023-04-03T11:57:51.833Z,46.40
2023-04-03T12:00:52.371Z,46.97
2023-04-03T12:03:59.136Z,48.11
2023-04-03T12:07:02.147Z,48.96
2023-04-03T12:09:35.362Z,48.02
2023-04-03T12:12:28.791Z,47.21
2023-04-03T12:14:56.806Z,45.25
2023-04-03T12:17:30.342Z,41.41
2023-04-03T12:19:58.431Z,44.60
2023-04-03T12:22:26.335Z,44.13
2023-04-03T12:24:55.132Z,42.09
2023-04-03T12:27:28.467Z,42.54
2023-04-03T12:30:15.739Z,44.23
2023-04-03T12:33:16.083Z,44.22
2023-04-03T12:35:58.920Z,44.23
2023-04-03T12:38:49.184Z,48.05
2023-04-03T12:41:39.040Z,45.70
2023-04-03T12:44:27.164Z,44.94
2023-04-03T12:46:56.164Z,41.31
2023-04-03T12:49:37.953Z,39.10
2023-04-03T12:52:18.886Z,41.12
2023-04-03T12:54:48.741Z,42.61
2023-04-03T12:57:20.961Z,41.25
2023-04-03T12:59:50.745Z,40.72
2023-04-03T13:02:27.384Z,44.36
2023-04-03T13:04:58.811Z,46.85
2023-04-03T13:07:33.049Z,47.13
2023-04-03T13:10:12.619Z,46.77
2023-04-03T13:12:49.269Z,48.07
2023-04-03T13:15:21.549Z,45.53
2023-04-03T13:17:51.157Z,44.48
2023-04-03T13:20:23.997Z,44.53
2023-04-03T13:22:58.665Z,42.63
2023-04-03T13:25:31.684Z,39.48
2023-04-03T13:28:12.758Z,39.73
2023-04-03T13:30:58.572Z,43.54
2023-04-03T13:33:29.572Z,41.32
2023-04-03T13:36:02.394Z,42.06
2023-04-03T13:38:34.588Z,44.18
2023-04-03T13:41:06.347Z,42.18
2023-04-03T13:43:37.737Z,42.37
2023-04-03T13:46:27.156Z,42.01
2023-04-03T13:48:58.399Z,42.46
2023-04-03T13:51:29.417Z,41.96
2023-04-03T13:54:00.954Z,42.59
2023-04-03T13:56:34.156Z,42.55
2023-04-03T13:59:25.601Z,45.27
2023-04-03T14:01:57.737Z,43.72
2023-04-03T14:04:28.615Z,42.05
2023-04-03T14:06:57.616Z,40.55
2023-04-03T14:09:29.036Z,44.58
2023-04-03T14:12:05.861Z,41.73
2023-04-03T14:14:36.965Z,40.61
2023-04-03T14:17:25.108Z,41.13
2023-04-03T14:19:55.856Z,38.44
2023-04-03T14:22:26.173Z,39.40
2023-04-03T14:24:54.681Z,41.85
2023-04-03T14:27:26.140Z,42.99
2023-04-03T14:29:57.168Z,44.32
2023-04-03T14:32:27.800Z,41.86
2023-04-03T14:34:56.361Z,43.23
2023-04-03T14:37:27.429Z,42.39
2023-04-03T14:39:55.996Z,42.22
2023-04-03T14:42:27.603Z,41.23
2023-04-03T14:44:55.779Z,41.34
2023-04-03T14:47:31.699Z,39.87
2023-04-03T14:50:01.058Z,37.89
2023-04-03T14:52:32.354Z,36.68
2023-04-03T14:55:01.326Z,37.64
2023-04-03T14:57:31.715Z,37.11
2023-04-03T15:00:01.797Z,38.93
2023-04-03T15:02:33.962Z,40.33
2023-04-03T15:05:05.056Z,39.33
2023-04-03T15:07:36.813Z,39.23
2023-04-03T15:10:17.343Z,39.47
2023-04-03T15:12:45.920Z,39.76
2023-04-03T15:15:14.532Z,39.66
2023-04-03T15:17:45.206Z,38.54
2023-04-03T15:20:16.181Z,37.06
2023-04-03T15:22:44.265Z,37.82
2023-04-03T15:25:12.279Z,36.41
2023-04-03T15:27:41.736Z,38.04
2023-04-03T15:30:15.356Z,37.38
2023-04-03T15:32:44.806Z,38.95
2023-04-03T15:35:13.218Z,38.97
2023-04-03T15:37:41.094Z,38.70
2023-04-03T15:40:10.812Z,40.21
2023-04-03T15:42:39.321Z,38.93
2023-04-03T15:45:08.560Z,38.63
2023-04-03T15:47:36.659Z,39.13
2023-04-03T15:50:08.923Z,39.57
2023-04-03T15:52:37.438Z,37.26
2023-04-03T15:55:05.776Z,35.94
2023-04-03T16:00:08.025Z,36.17
2023-04-03T16:02:36.589Z,36.32
2023-04-03T16:05:06.703Z,34.21
2023-04-03T16:07:34.889Z,35.95
2023-04-03T16:10:02.795Z,36.28
2023-04-03T16:12:30.650Z,36.70
2023-04-03T16:14:58.526Z,37.22
2023-04-03T16:17:28.453Z,37.17
2023-04-03T16:19:57.360Z,37.81
2023-04-03T16:22:28.532Z,38.41
2023-04-03T16:24:56.523Z,39.05
2023-04-03T16:27:28.463Z,38.96
2023-04-03T16:29:56.532Z,38.17
2023-04-03T16:32:25.996Z,38.05
2023-04-03T16:34:54.222Z,37.94
2023-04-03T16:37:22.253Z,38.40
2023-04-03T16:39:51.527Z,40.20
2023-04-03T16:42:19.459Z,39.32
2023-04-03T16:44:47.286Z,38.82
2023-04-03T16:47:17.967Z,40.41
2023-04-03T16:49:45.998Z,39.25
2023-04-03T16:52:14.109Z,40.32
2023-04-03T16:54:42.034Z,40.95
2023-04-03T16:57:11.383Z,41.34
2023-04-03T16:59:39.831Z,41.46
2023-04-03T17:02:07.904Z,40.79
2023-04-03T17:04:35.776Z,39.49
2023-04-03T17:07:06.996Z,39.77
2023-04-03T17:09:35.556Z,40.01
2023-04-03T17:12:03.816Z,41.95
2023-04-03T17:14:33.081Z,40.48
2023-04-03T17:17:01.110Z,44.70
2023-04-03T17:19:31.119Z,45.29
2023-04-03T17:21:59.395Z,46.95
2023-04-03T17:24:28.158Z,47.58
2023-04-03T17:26:56.058Z,47.59
2023-04-03T17:29:24.032Z,48.93
2023-04-03T17:31:53.388Z,48.84
2023-04-03T17:34:21.670Z,48.84
2023-04-03T17:36:49.585Z,50.15
2023-04-03T17:39:17.610Z,50.32
2023-04-03T17:41:46.005Z,50.45
2023-04-03T17:44:14.614Z,50.33
2023-04-03T17:46:42.851Z,49.70
2023-04-03T17:49:14.973Z,49.35
2023-04-03T17:51:43.637Z,49.97
2023-04-03T17:54:11.660Z,50.16
2023-04-03T17:56:39.822Z,49.21
2023-04-03T17:59:08.099Z,49.94
2023-04-03T18:01:37.022Z,49.99
2023-04-03T18:04:06.528Z,50.21
2023-04-03T18:06:42.547Z,50.81
2023-04-03T18:09:15.344Z,49.36
2023-04-03T18:11:44.693Z,48.05
2023-04-03T18:14:15.750Z,49.42
2023-04-03T18:16:43.748Z,49.37
2023-04-03T18:19:22.697Z,50.23
2023-04-03T18:21:58.678Z,47.27
2023-04-03T18:24:28.181Z,49.18
2023-04-03T18:27:01.381Z,49.58
2023-04-03T18:29:33.362Z,50.03
2023-04-03T18:32:04.305Z,49.87
2023-04-03T18:34:32.617Z,49.83
2023-04-03T18:37:03.171Z,49.94
2023-04-03T18:39:31.135Z,50.29
2023-04-03T18:42:07.891Z,50.54
2023-04-03T18:44:39.004Z,50.46
2023-04-03T18:47:07.916Z,50.85
2023-04-03T18:49:39.943Z,51.02
2023-04-03T18:52:10.413Z,51.23
2023-04-03T18:54:38.573Z,50.27
2023-04-03T18:57:06.768Z,51.41
2023-04-03T18:59:34.643Z,51.91
2023-04-03T19:02:02.662Z,50.91
2023-04-03T19:04:31.730Z,50.23
2023-04-03T19:07:03.859Z,49.91
2023-04-03T19:09:34.433Z,48.10
2023-04-03T19:12:02.742Z,48.84
2023-04-03T19:14:30.628Z,48.58
2023-04-03T19:16:58.649Z,48.90
2023-04-03T19:19:26.646Z,49.31
2023-04-03T19:21:54.584Z,49.82
2023-04-03T19:24:22.770Z,49.26
2023-04-03T19:26:52.238Z,48.72
2023-04-03T19:29:20.095Z,50.51
2023-04-03T19:31:48.006Z,50.30
2023-04-03T19:34:15.992Z,50.56
2023-04-03T19:36:44.168Z,50.82
2023-04-03T19:39:15.411Z,51.59
2023-04-03T19:41:45.597Z,50.39
2023-04-03T19:44:14.979Z,51.38
2023-04-03T19:46:50.826Z,50.83
2023-04-03T19:49:19.910Z,51.60
2023-04-03T19:51:47.809Z,51.81
2023-04-03T19:54:15.734Z,51.56
2023-04-03T19:56:43.675Z,51.26
2023-04-03T19:59:11.839Z,51.69
2023-04-03T20:01:41.138Z,51.61
2023-04-03T20:04:10.002Z,51.09
2023-04-03T20:06:37.914Z,50.43
2023-04-03T20:09:05.855Z,51.54
2023-04-03T20:11:35.610Z,50.38
2023-04-03T20:14:04.017Z,51.04
2023-04-03T20:16:31.963Z,48.96
2023-04-03T20:19:01.368Z,49.51
2023-04-03T20:21:30.729Z,50.51
2023-04-03T20:23:59.270Z,49.95
2023-04-03T20:26:30.079Z,50.45
2023-04-03T20:29:00.455Z,49.67
2023-04-03T20:31:29.713Z,51.10
2023-04-03T20:33:57.952Z,51.20
2023-04-03T20:36:28.938Z,51.31
2023-04-03T20:38:57.813Z,51.11
2023-04-03T20:41:25.990Z,51.65
2023-04-03T20:43:53.850Z,51.11
2023-04-03T20:46:25.494Z,49.88
2023-04-03T20:48:54.855Z,51.35
2023-04-03T20:51:23.196Z,50.96
2023-04-03T20:53:53.058Z,50.50
2023-04-03T20:56:20.978Z,52.37
2023-04-03T20:58:49.576Z,50.69
2023-04-03T21:01:21.102Z,51.60
2023-04-03T21:03:50.980Z,52.14
2023-04-03T21:06:56.478Z,51.52
2023-04-03T21:10:01.648Z,52.07
2023-04-03T21:13:07.113Z,51.91
2023-04-03T21:15:51.965Z,53.18
2023-04-03T21:18:35.822Z,52.46
2023-04-03T21:21:04.881Z,53.02
2023-04-03T21:23:34.247Z,52.62
2023-04-03T21:26:03.091Z,53.93
2023-04-03T21:28:31.729Z,53.67
2023-04-03T21:30:59.679Z,54.41
2023-04-03T21:33:28.981Z,54.25
2023-04-03T21:35:59.766Z,54.84
2023-04-03T21:38:28.249Z,54.65
2023-04-03T21:40:57.763Z,53.70
2023-04-03T21:43:25.761Z,55.13
2023-04-03T21:45:54.491Z,55.24
2023-04-03T21:48:23.247Z,55.17
2023-04-03T21:50:53.637Z,54.94
2023-04-03T21:53:22.572Z,55.26
2023-04-03T21:55:54.397Z,54.81
2023-04-03T21:58:22.510Z,55.75
2023-04-03T22:00:50.359Z,54.76
2023-04-03T22:03:23.452Z,54.90
2023-04-03T22:05:53.397Z,55.76
2023-04-03T22:08:21.393Z,56.76
2023-04-03T22:10:49.364Z,56.09
2023-04-03T22:13:17.245Z,56.10
2023-04-03T22:15:48.418Z,57.21
2023-04-03T22:18:16.333Z,56.45
2023-04-03T22:20:45.044Z,58.11
2023-04-03T22:23:14.223Z,58.05
2023-04-03T22:25:42.097Z,58.40
2023-04-03T22:28:09.937Z,58.56
2023-04-03T22:30:41.604Z,58.35
2023-04-03T22:33:09.648Z,58.39
2023-04-03T22:35:37.561Z,58.21
2023-04-03T22:38:05.387Z,58.26
2023-04-03T22:40:34.819Z,59.28
2023-04-03T22:43:02.706Z,59.48
2023-04-03T22:45:30.560Z,60.32
2023-04-03T22:47:58.924Z,59.86
2023-04-03T22:50:27.082Z,59.10
2023-04-03T22:52:55.139Z,58.97
2023-04-03T22:55:24.480Z,59.47
2023-04-03T22:57:53.709Z,59.81
2023-04-03T23:00:21.727Z,58.93
2023-04-03T23:02:49.660Z,59.28
2023-04-03T23:05:17.690Z,59.81
2023-04-03T23:07:45.564Z,59.42
2023-04-03T23:10:13.544Z,59.43
2023-04-03T23:12:42.295Z,59.42
2023-04-03T23:15:12.042Z,59.31
2023-04-03T23:17:40.172Z,59.87
2023-04-03T23:20:09.754Z,59.85
2023-04-03T23:22:37.610Z,59.53
2023-04-03T23:25:06.445Z,59.99
2023-04-03T23:27:34.305Z,61.07
2023-04-03T23:30:02.109Z,60.39
2023-04-03T23:32:31.515Z,60.71
2023-04-03T23:34:59.382Z,60.28
2023-04-03T23:37:27.358Z,60.82
2023-04-03T23:39:55.200Z,60.88
2023-04-03T23:42:23.070Z,61.28
2023-04-03T23:44:51.262Z,60.89
2023-04-03T23:47:19.218Z,61.07
2023-04-03T23:49:48.426Z,60.30
2023-04-03T23:52:16.393Z,61.29
2023-04-03T23:54:44.222Z,61.15
2023-04-03T23:57:12.145Z,61.19
2023-04-03T23:59:39.943Z,60.36
